world map with ABC marked

ABC - Airport

This information may not be accurate or current and is not valid for navigation or flight planning. No warranty of fitness for any purpose is made or implied.

flag of Castille-La Manchaflag of Spain

Donate via PayPal

Additional information is available on the NEW Great Circle Mapper

Location
City:  Albacete, Castille-La Mancha, Spain
Name:Albacete Airport (Los Llanos AB)
ICAO / IATA:LEAB / ABC

Details
Type:Airport (Aerodrome, Airfield)
Use:Public/Civil, Military
Latitude:38°56'55"N (38.948528)
Longitude:1°51'49"W (-1.863516)
Datum:WGS 1984
Elevation:2302 ft (702 m)
Runways:1
Longest:8858 × 197 ft (2700 × 60 m)

Time
Timezone:UTC+1 (DST+4)
Local Time:

Weather
METAR:LEAB  041400Z 31013KT CAVOK 10/M04 Q1027 NOSIG
TAF:LEAB  (expired)

Related Locations
Nearby:
Farthest:NZJG: 12435 mi / 20013 km
Gisbome [Hospital Heliport], GIS, NZ

Find:

   beyond  
but within

Other Information
Maps:
Sources:

  


 


Great Circle Mapper   Great Circle Mapper
Great Circle Mapper FAQ   Great Circle Mapper FAQ
  Karl's Home Page
KLSē   KLSē Home
   GC on Facebook
Airlines of the World   Airlines of the World
Donate via PayPal


Copyright © 2004-2020, Karl L. Swartz. All rights reserved.
All trademarks mentioned herein belong to their respective owners.

Please see credits for attribution and copyright information.

Karl Swartz <karl@kls2.com>
  Powered by FreeBSD
Valid HTML 4.01!
Labeled with ICRA
hCard Microformat
Geo Microformat